sensor_id;sensor_type;location;lat;lon;timestamp;P1;durP1;ratioP1;P2;durP2;ratioP2
8088;SDS011;57635;49.194;12.104;2022-12-10T00:02:11;24.93;;;20.53;;
8088;SDS011;57635;49.194;12.104;2022-12-10T00:04:39;25.60;;;21.80;;
8088;SDS011;57635;49.194;12.104;2022-12-10T00:07:14;26.90;;;20.87;;
8088;SDS011;57635;49.194;12.104;2022-12-10T00:09:41;22.03;;;19.00;;
8088;SDS011;57635;49.194;12.104;2022-12-10T00:12:09;25.83;;;20.93;;
8088;SDS011;57635;49.194;12.104;2022-12-10T00:14:37;24.60;;;20.90;;
8088;SDS011;57635;49.194;12.104;2022-12-10T00:17:06;26.97;;;21.33;;
8088;SDS011;57635;49.194;12.104;2022-12-10T00:19:38;26.87;;;22.50;;
8088;SDS011;57635;49.194;12.104;2022-12-10T00:22:06;27.13;;;21.73;;
8088;SDS011;57635;49.194;12.104;2022-12-10T00:24:34;25.73;;;20.90;;
8088;SDS011;57635;49.194;12.104;2022-12-10T00:27:02;25.60;;;20.37;;
8088;SDS011;57635;49.194;12.104;2022-12-10T00:29:29;27.67;;;21.50;;
8088;SDS011;57635;49.194;12.104;2022-12-10T00:31:57;24.90;;;21.73;;
8088;SDS011;57635;49.194;12.104;2022-12-10T00:34:26;23.83;;;20.47;;
8088;SDS011;57635;49.194;12.104;2022-12-10T00:36:54;24.20;;;19.70;;
8088;SDS011;57635;49.194;12.104;2022-12-10T00:39:21;24.43;;;21.00;;
8088;SDS011;57635;49.194;12.104;2022-12-10T00:41:49;23.97;;;19.47;;
8088;SDS011;57635;49.194;12.104;2022-12-10T00:44:17;24.70;;;19.67;;
8088;SDS011;57635;49.194;12.104;2022-12-10T00:46:44;26.93;;;21.63;;
8088;SDS011;57635;49.194;12.104;2022-12-10T00:49:12;27.43;;;21.03;;
8088;SDS011;57635;49.194;12.104;2022-12-10T00:51:41;26.50;;;20.97;;
8088;SDS011;57635;49.194;12.104;2022-12-10T00:54:09;25.50;;;20.40;;
8088;SDS011;57635;49.194;12.104;2022-12-10T00:56:37;26.40;;;20.30;;
8088;SDS011;57635;49.194;12.104;2022-12-10T00:59:05;24.83;;;20.10;;
8088;SDS011;57635;49.194;12.104;2022-12-10T01:01:33;27.73;;;21.97;;
8088;SDS011;57635;49.194;12.104;2022-12-10T01:04:02;27.10;;;21.27;;
8088;SDS011;57635;49.194;12.104;2022-12-10T01:06:33;23.73;;;19.40;;
8088;SDS011;57635;49.194;12.104;2022-12-10T01:09:05;28.30;;;21.93;;
8088;SDS011;57635;49.194;12.104;2022-12-10T01:11:34;31.23;;;23.07;;
8088;SDS011;57635;49.194;12.104;2022-12-10T01:14:04;27.80;;;22.23;;
8088;SDS011;57635;49.194;12.104;2022-12-10T01:16:33;29.27;;;23.30;;
8088;SDS011;57635;49.194;12.104;2022-12-10T01:19:01;29.60;;;24.13;;
8088;SDS011;57635;49.194;12.104;2022-12-10T01:21:29;25.40;;;21.20;;
8088;SDS011;57635;49.194;12.104;2022-12-10T01:23:57;23.47;;;20.13;;
8088;SDS011;57635;49.194;12.104;2022-12-10T01:26:28;25.00;;;21.77;;
8088;SDS011;57635;49.194;12.104;2022-12-10T01:28:57;27.00;;;22.07;;
8088;SDS011;57635;49.194;12.104;2022-12-10T01:31:26;27.20;;;22.13;;
8088;SDS011;57635;49.194;12.104;2022-12-10T01:33:54;27.07;;;21.03;;
8088;SDS011;57635;49.194;12.104;2022-12-10T01:36:23;29.37;;;22.30;;
8088;SDS011;57635;49.194;12.104;2022-12-10T01:38:52;24.67;;;20.47;;
8088;SDS011;57635;49.194;12.104;2022-12-10T01:41:20;30.33;;;21.73;;
8088;SDS011;57635;49.194;12.104;2022-12-10T01:44:00;28.13;;;21.37;;
8088;SDS011;57635;49.194;12.104;2022-12-10T01:46:29;27.87;;;20.97;;
8088;SDS011;57635;49.194;12.104;2022-12-10T01:48:59;25.67;;;20.50;;
8088;SDS011;57635;49.194;12.104;2022-12-10T01:51:28;31.10;;;21.63;;
8088;SDS011;57635;49.194;12.104;2022-12-10T01:53:58;28.07;;;21.43;;
8088;SDS011;57635;49.194;12.104;2022-12-10T01:56:25;24.27;;;20.90;;
8088;SDS011;57635;49.194;12.104;2022-12-10T01:58:55;28.03;;;23.00;;
8088;SDS011;57635;49.194;12.104;2022-12-10T02:01:26;30.13;;;22.03;;
8088;SDS011;57635;49.194;12.104;2022-12-10T02:04:01;30.07;;;23.37;;
8088;SDS011;57635;49.194;12.104;2022-12-10T02:06:38;28.80;;;21.27;;
8088;SDS011;57635;49.194;12.104;2022-12-10T02:09:13;29.80;;;23.20;;
8088;SDS011;57635;49.194;12.104;2022-12-10T02:11:52;29.07;;;22.63;;
8088;SDS011;57635;49.194;12.104;2022-12-10T02:14:27;25.37;;;22.30;;
8088;SDS011;57635;49.194;12.104;2022-12-10T02:16:59;32.47;;;23.07;;
8088;SDS011;57635;49.194;12.104;2022-12-10T02:19:34;26.50;;;21.50;;
8088;SDS011;57635;49.194;12.104;2022-12-10T02:22:07;30.83;;;22.57;;
8088;SDS011;57635;49.194;12.104;2022-12-10T02:24:35;31.77;;;22.33;;
8088;SDS011;57635;49.194;12.104;2022-12-10T02:27:04;25.47;;;21.60;;
8088;SDS011;57635;49.194;12.104;2022-12-10T02:29:35;27.77;;;22.07;;
8088;SDS011;57635;49.194;12.104;2022-12-10T02:32:04;28.17;;;24.43;;
8088;SDS011;57635;49.194;12.104;2022-12-10T02:34:35;25.83;;;21.20;;
8088;SDS011;57635;49.194;12.104;2022-12-10T02:37:04;27.17;;;22.37;;
8088;SDS011;57635;49.194;12.104;2022-12-10T02:39:35;30.83;;;24.00;;
8088;SDS011;57635;49.194;12.104;2022-12-10T02:42:06;32.43;;;23.03;;
8088;SDS011;57635;49.194;12.104;2022-12-10T02:44:36;26.77;;;22.27;;
8088;SDS011;57635;49.194;12.104;2022-12-10T02:47:05;26.33;;;21.43;;
8088;SDS011;57635;49.194;12.104;2022-12-10T02:49:34;28.73;;;23.00;;
8088;SDS011;57635;49.194;12.104;2022-12-10T02:52:06;28.07;;;23.20;;
8088;SDS011;57635;49.194;12.104;2022-12-10T02:54:37;27.60;;;22.67;;
8088;SDS011;57635;49.194;12.104;2022-12-10T03:00:09;28.57;;;23.30;;
8088;SDS011;57635;49.194;12.104;2022-12-10T03:02:50;28.30;;;22.80;;
8088;SDS011;57635;49.194;12.104;2022-12-10T03:05:27;31.10;;;23.27;;
8088;SDS011;57635;49.194;12.104;2022-12-10T03:08:03;29.30;;;23.43;;
8088;SDS011;57635;49.194;12.104;2022-12-10T03:10:33;30.63;;;23.93;;
8088;SDS011;57635;49.194;12.104;2022-12-10T03:13:06;33.60;;;23.97;;
8088;SDS011;57635;49.194;12.104;2022-12-10T03:15:38;28.57;;;22.67;;
8088;SDS011;57635;49.194;12.104;2022-12-10T03:18:07;30.53;;;24.67;;
8088;SDS011;57635;49.194;12.104;2022-12-10T03:20:37;29.17;;;25.23;;
8088;SDS011;57635;49.194;12.104;2022-12-10T03:23:07;32.37;;;24.47;;
8088;SDS011;57635;49.194;12.104;2022-12-10T03:25:36;34.07;;;23.97;;
8088;SDS011;57635;49.194;12.104;2022-12-10T03:28:04;30.20;;;23.40;;
8088;SDS011;57635;49.194;12.104;2022-12-10T03:30:33;32.67;;;23.97;;
8088;SDS011;57635;49.194;12.104;2022-12-10T03:33:03;28.03;;;22.40;;
8088;SDS011;57635;49.194;12.104;2022-12-10T03:35:31;26.97;;;22.27;;
8088;SDS011;57635;49.194;12.104;2022-12-10T03:37:59;32.47;;;23.57;;
8088;SDS011;57635;49.194;12.104;2022-12-10T03:40:27;29.07;;;22.83;;
8088;SDS011;57635;49.194;12.104;2022-12-10T03:42:55;29.97;;;23.27;;
8088;SDS011;57635;49.194;12.104;2022-12-10T03:45:22;29.93;;;23.83;;
8088;SDS011;57635;49.194;12.104;2022-12-10T03:47:50;32.40;;;25.67;;
8088;SDS011;57635;49.194;12.104;2022-12-10T03:50:19;30.87;;;25.43;;
8088;SDS011;57635;49.194;12.104;2022-12-10T03:52:47;32.90;;;25.07;;
8088;SDS011;57635;49.194;12.104;2022-12-10T03:55:14;29.37;;;23.83;;
8088;SDS011;57635;49.194;12.104;2022-12-10T03:57:42;30.70;;;23.80;;
8088;SDS011;57635;49.194;12.104;2022-12-10T04:00:11;29.17;;;24.30;;
8088;SDS011;57635;49.194;12.104;2022-12-10T04:02:39;35.80;;;24.70;;
8088;SDS011;57635;49.194;12.104;2022-12-10T04:05:07;33.87;;;25.57;;
8088;SDS011;57635;49.194;12.104;2022-12-10T04:07:36;33.57;;;24.40;;
8088;SDS011;57635;49.194;12.104;2022-12-10T04:10:04;33.13;;;25.63;;
8088;SDS011;57635;49.194;12.104;2022-12-10T04:12:33;33.73;;;25.07;;
8088;SDS011;57635;49.194;12.104;2022-12-10T04:15:01;34.70;;;25.53;;
8088;SDS011;57635;49.194;12.104;2022-12-10T04:17:58;32.13;;;24.23;;
8088;SDS011;57635;49.194;12.104;2022-12-10T04:20:26;32.60;;;23.17;;
8088;SDS011;57635;49.194;12.104;2022-12-10T04:23:13;33.30;;;25.57;;
8088;SDS011;57635;49.194;12.104;2022-12-10T04:26:09;33.33;;;25.70;;
8088;SDS011;57635;49.194;12.104;2022-12-10T04:28:51;31.67;;;22.53;;
8088;SDS011;57635;49.194;12.104;2022-12-10T04:31:19;31.87;;;25.17;;
8088;SDS011;57635;49.194;12.104;2022-12-10T04:33:46;34.90;;;26.53;;
8088;SDS011;57635;49.194;12.104;2022-12-10T04:36:14;30.83;;;25.60;;
8088;SDS011;57635;49.194;12.104;2022-12-10T04:38:43;35.40;;;26.70;;
8088;SDS011;57635;49.194;12.104;2022-12-10T04:41:11;33.40;;;25.90;;
8088;SDS011;57635;49.194;12.104;2022-12-10T04:43:41;32.70;;;26.83;;
8088;SDS011;57635;49.194;12.104;2022-12-10T04:46:09;30.40;;;24.33;;
8088;SDS011;57635;49.194;12.104;2022-12-10T04:48:37;34.93;;;25.10;;
8088;SDS011;57635;49.194;12.104;2022-12-10T04:51:05;39.17;;;28.03;;
8088;SDS011;57635;49.194;12.104;2022-12-10T04:53:33;35.50;;;25.40;;
8088;SDS011;57635;49.194;12.104;2022-12-10T04:56:02;36.73;;;26.13;;
8088;SDS011;57635;49.194;12.104;2022-12-10T04:58:31;37.03;;;30.95;;
8088;SDS011;57635;49.194;12.104;2022-12-10T05:01:02;40.17;;;29.87;;
8088;SDS011;57635;49.194;12.104;2022-12-10T05:03:29;39.03;;;27.43;;
8088;SDS011;57635;49.194;12.104;2022-12-10T05:06:00;37.30;;;27.03;;
8088;SDS011;57635;49.194;12.104;2022-12-10T05:08:28;32.73;;;25.60;;
8088;SDS011;57635;49.194;12.104;2022-12-10T05:10:55;35.53;;;25.97;;
8088;SDS011;57635;49.194;12.104;2022-12-10T05:13:24;35.43;;;25.67;;
8088;SDS011;57635;49.194;12.104;2022-12-10T05:15:52;34.57;;;25.33;;
8088;SDS011;57635;49.194;12.104;2022-12-10T05:18:20;36.20;;;26.27;;
8088;SDS011;57635;49.194;12.104;2022-12-10T05:20:47;34.70;;;27.03;;
8088;SDS011;57635;49.194;12.104;2022-12-10T05:23:15;35.63;;;26.20;;
8088;SDS011;57635;49.194;12.104;2022-12-10T05:25:58;33.10;;;26.03;;
8088;SDS011;57635;49.194;12.104;2022-12-10T05:28:32;34.03;;;25.90;;
8088;SDS011;57635;49.194;12.104;2022-12-10T05:31:01;40.03;;;28.07;;
8088;SDS011;57635;49.194;12.104;2022-12-10T05:33:28;37.37;;;25.70;;
8088;SDS011;57635;49.194;12.104;2022-12-10T05:35:57;38.00;;;27.07;;
8088;SDS011;57635;49.194;12.104;2022-12-10T05:38:25;39.83;;;28.10;;
8088;SDS011;57635;49.194;12.104;2022-12-10T05:40:53;37.00;;;25.83;;
8088;SDS011;57635;49.194;12.104;2022-12-10T05:43:22;41.25;;;33.17;;
8088;SDS011;57635;49.194;12.104;2022-12-10T05:45:51;33.90;;;28.17;;
8088;SDS011;57635;49.194;12.104;2022-12-10T05:48:19;37.23;;;27.87;;
8088;SDS011;57635;49.194;12.104;2022-12-10T05:50:46;37.57;;;28.37;;
8088;SDS011;57635;49.194;12.104;2022-12-10T05:53:14;39.03;;;27.13;;
8088;SDS011;57635;49.194;12.104;2022-12-10T05:55:44;35.07;;;27.20;;
8088;SDS011;57635;49.194;12.104;2022-12-10T05:58:13;37.43;;;27.20;;
8088;SDS011;57635;49.194;12.104;2022-12-10T06:00:40;34.40;;;24.47;;
8088;SDS011;57635;49.194;12.104;2022-12-10T06:03:09;33.60;;;25.90;;
8088;SDS011;57635;49.194;12.104;2022-12-10T06:05:37;33.97;;;25.33;;
8088;SDS011;57635;49.194;12.104;2022-12-10T06:08:05;37.23;;;26.37;;
8088;SDS011;57635;49.194;12.104;2022-12-10T06:10:34;34.20;;;25.33;;
8088;SDS011;57635;49.194;12.104;2022-12-10T06:13:02;38.53;;;27.67;;
8088;SDS011;57635;49.194;12.104;2022-12-10T06:15:29;38.10;;;26.83;;
8088;SDS011;57635;49.194;12.104;2022-12-10T06:17:57;40.20;;;28.07;;
8088;SDS011;57635;49.194;12.104;2022-12-10T06:20:27;38.47;;;27.20;;
8088;SDS011;57635;49.194;12.104;2022-12-10T06:22:54;36.63;;;27.20;;
8088;SDS011;57635;49.194;12.104;2022-12-10T06:25:23;39.47;;;26.77;;
8088;SDS011;57635;49.194;12.104;2022-12-10T06:27:51;35.43;;;25.90;;
8088;SDS011;57635;49.194;12.104;2022-12-10T06:30:19;36.97;;;26.67;;
8088;SDS011;57635;49.194;12.104;2022-12-10T06:32:46;35.97;;;26.23;;
8088;SDS011;57635;49.194;12.104;2022-12-10T06:35:14;32.20;;;24.10;;
8088;SDS011;57635;49.194;12.104;2022-12-10T06:37:43;36.47;;;28.33;;
8088;SDS011;57635;49.194;12.104;2022-12-10T06:40:11;36.73;;;25.93;;
8088;SDS011;57635;49.194;12.104;2022-12-10T06:42:38;35.23;;;24.93;;
8088;SDS011;57635;49.194;12.104;2022-12-10T06:45:06;37.03;;;27.47;;
8088;SDS011;57635;49.194;12.104;2022-12-10T06:47:35;33.47;;;25.43;;
8088;SDS011;57635;49.194;12.104;2022-12-10T06:50:08;34.50;;;26.33;;
8088;SDS011;57635;49.194;12.104;2022-12-10T06:52:36;34.63;;;24.63;;
8088;SDS011;57635;49.194;12.104;2022-12-10T06:55:07;31.63;;;25.07;;
8088;SDS011;57635;49.194;12.104;2022-12-10T06:57:35;36.50;;;26.73;;
8088;SDS011;57635;49.194;12.104;2022-12-10T07:00:03;34.33;;;26.50;;
8088;SDS011;57635;49.194;12.104;2022-12-10T07:02:32;31.93;;;25.33;;
8088;SDS011;57635;49.194;12.104;2022-12-10T07:05:00;33.13;;;26.00;;
8088;SDS011;57635;49.194;12.104;2022-12-10T07:07:28;35.07;;;26.97;;
8088;SDS011;57635;49.194;12.104;2022-12-10T07:09:55;35.20;;;26.50;;
8088;SDS011;57635;49.194;12.104;2022-12-10T07:12:24;34.33;;;25.33;;
8088;SDS011;57635;49.194;12.104;2022-12-10T07:14:52;37.43;;;29.40;;
8088;SDS011;57635;49.194;12.104;2022-12-10T07:17:20;35.00;;;28.20;;
8088;SDS011;57635;49.194;12.104;2022-12-10T07:19:48;34.43;;;26.67;;
8088;SDS011;57635;49.194;12.104;2022-12-10T07:22:15;34.73;;;26.93;;
8088;SDS011;57635;49.194;12.104;2022-12-10T07:24:43;34.87;;;28.07;;
8088;SDS011;57635;49.194;12.104;2022-12-10T07:27:11;33.47;;;26.13;;
8088;SDS011;57635;49.194;12.104;2022-12-10T07:29:40;42.47;;;27.80;;
8088;SDS011;57635;49.194;12.104;2022-12-10T07:32:07;40.83;;;29.90;;
8088;SDS011;57635;49.194;12.104;2022-12-10T07:34:35;36.47;;;28.33;;
8088;SDS011;57635;49.194;12.104;2022-12-10T07:37:03;45.23;;;33.10;;
8088;SDS011;57635;49.194;12.104;2022-12-10T07:39:30;41.10;;;31.53;;
8088;SDS011;57635;49.194;12.104;2022-12-10T07:41:58;36.07;;;28.00;;
8088;SDS011;57635;49.194;12.104;2022-12-10T07:44:26;38.53;;;29.07;;
8088;SDS011;57635;49.194;12.104;2022-12-10T07:46:55;38.30;;;29.53;;
8088;SDS011;57635;49.194;12.104;2022-12-10T07:49:22;33.70;;;26.83;;
8088;SDS011;57635;49.194;12.104;2022-12-10T07:51:50;38.17;;;28.53;;
8088;SDS011;57635;49.194;12.104;2022-12-10T07:54:18;41.90;;;28.47;;
8088;SDS011;57635;49.194;12.104;2022-12-10T07:56:46;34.90;;;27.13;;
8088;SDS011;57635;49.194;12.104;2022-12-10T07:59:13;31.93;;;25.73;;
8088;SDS011;57635;49.194;12.104;2022-12-10T08:01:41;39.03;;;26.30;;
8088;SDS011;57635;49.194;12.104;2022-12-10T08:04:10;33.97;;;25.37;;
8088;SDS011;57635;49.194;12.104;2022-12-10T08:06:38;36.40;;;26.20;;
8088;SDS011;57635;49.194;12.104;2022-12-10T08:09:05;36.57;;;28.07;;
8088;SDS011;57635;49.194;12.104;2022-12-10T08:11:33;36.10;;;26.77;;
8088;SDS011;57635;49.194;12.104;2022-12-10T08:14:01;32.33;;;25.90;;
8088;SDS011;57635;49.194;12.104;2022-12-10T08:16:29;40.10;;;28.10;;
8088;SDS011;57635;49.194;12.104;2022-12-10T08:18:58;40.10;;;27.27;;
8088;SDS011;57635;49.194;12.104;2022-12-10T08:21:29;36.37;;;26.37;;
8088;SDS011;57635;49.194;12.104;2022-12-10T08:23:58;39.93;;;28.70;;
8088;SDS011;57635;49.194;12.104;2022-12-10T08:26:27;36.93;;;27.30;;
8088;SDS011;57635;49.194;12.104;2022-12-10T08:28:56;37.73;;;29.57;;
8088;SDS011;57635;49.194;12.104;2022-12-10T08:31:25;35.13;;;27.27;;
8088;SDS011;57635;49.194;12.104;2022-12-10T08:34:00;36.27;;;28.70;;
8088;SDS011;57635;49.194;12.104;2022-12-10T08:36:29;36.83;;;27.53;;
8088;SDS011;57635;49.194;12.104;2022-12-10T08:38:57;36.00;;;27.90;;
8088;SDS011;57635;49.194;12.104;2022-12-10T08:41:25;35.43;;;27.17;;
8088;SDS011;57635;49.194;12.104;2022-12-10T08:43:52;34.17;;;25.70;;
8088;SDS011;57635;49.194;12.104;2022-12-10T08:46:21;34.60;;;24.73;;
8088;SDS011;57635;49.194;12.104;2022-12-10T08:48:49;35.73;;;27.90;;
8088;SDS011;57635;49.194;12.104;2022-12-10T08:51:17;36.23;;;28.80;;
8088;SDS011;57635;49.194;12.104;2022-12-10T08:53:47;44.60;;;32.10;;
8088;SDS011;57635;49.194;12.104;2022-12-10T08:56:15;38.90;;;29.87;;
8088;SDS011;57635;49.194;12.104;2022-12-10T08:58:42;37.50;;;30.43;;
8088;SDS011;57635;49.194;12.104;2022-12-10T09:01:11;38.83;;;30.40;;
8088;SDS011;57635;49.194;12.104;2022-12-10T09:03:40;38.77;;;28.67;;
8088;SDS011;57635;49.194;12.104;2022-12-10T09:06:08;34.97;;;29.70;;
8088;SDS011;57635;49.194;12.104;2022-12-10T09:08:37;39.87;;;29.63;;
8088;SDS011;57635;49.194;12.104;2022-12-10T09:11:07;39.93;;;29.13;;
8088;SDS011;57635;49.194;12.104;2022-12-10T09:13:35;38.50;;;29.53;;
8088;SDS011;57635;49.194;12.104;2022-12-10T09:16:03;38.47;;;28.47;;
8088;SDS011;57635;49.194;12.104;2022-12-10T09:18:32;35.73;;;29.83;;
8088;SDS011;57635;49.194;12.104;2022-12-10T09:21:00;36.43;;;27.60;;
8088;SDS011;57635;49.194;12.104;2022-12-10T09:23:31;37.93;;;27.93;;
8088;SDS011;57635;49.194;12.104;2022-12-10T09:25:59;37.53;;;27.27;;
8088;SDS011;57635;49.194;12.104;2022-12-10T09:28:29;36.03;;;27.70;;
8088;SDS011;57635;49.194;12.104;2022-12-10T09:30:57;41.07;;;30.03;;
8088;SDS011;57635;49.194;12.104;2022-12-10T09:33:26;36.00;;;28.17;;
8088;SDS011;57635;49.194;12.104;2022-12-10T09:35:54;36.27;;;27.57;;
8088;SDS011;57635;49.194;12.104;2022-12-10T09:38:23;33.57;;;27.10;;
8088;SDS011;57635;49.194;12.104;2022-12-10T09:40:53;33.03;;;25.57;;
8088;SDS011;57635;49.194;12.104;2022-12-10T09:43:32;30.43;;;26.20;;
8088;SDS011;57635;49.194;12.104;2022-12-10T09:46:10;34.57;;;26.77;;
8088;SDS011;57635;49.194;12.104;2022-12-10T09:48:47;32.37;;;26.50;;
8088;SDS011;57635;49.194;12.104;2022-12-10T09:51:20;36.80;;;28.37;;
8088;SDS011;57635;49.194;12.104;2022-12-10T09:53:49;36.30;;;26.67;;
8088;SDS011;57635;49.194;12.104;2022-12-10T09:56:26;32.67;;;27.30;;
8088;SDS011;57635;49.194;12.104;2022-12-10T09:58:57;35.33;;;25.30;;
8088;SDS011;57635;49.194;12.104;2022-12-10T10:01:27;30.33;;;24.63;;
8088;SDS011;57635;49.194;12.104;2022-12-10T10:03:57;31.13;;;24.77;;
8088;SDS011;57635;49.194;12.104;2022-12-10T10:06:25;30.03;;;24.20;;
8088;SDS011;57635;49.194;12.104;2022-12-10T10:08:54;32.37;;;25.13;;
8088;SDS011;57635;49.194;12.104;2022-12-10T10:11:28;34.33;;;25.70;;
8088;SDS011;57635;49.194;12.104;2022-12-10T10:13:58;33.63;;;26.27;;
8088;SDS011;57635;49.194;12.104;2022-12-10T10:16:30;33.77;;;29.07;;
8088;SDS011;57635;49.194;12.104;2022-12-10T10:19:01;37.63;;;28.27;;
8088;SDS011;57635;49.194;12.104;2022-12-10T10:21:32;34.13;;;26.30;;
8088;SDS011;57635;49.194;12.104;2022-12-10T10:24:01;31.93;;;27.57;;
8088;SDS011;57635;49.194;12.104;2022-12-10T10:26:36;35.70;;;26.87;;
8088;SDS011;57635;49.194;12.104;2022-12-10T10:29:06;32.47;;;26.10;;
8088;SDS011;57635;49.194;12.104;2022-12-10T10:31:36;31.43;;;26.20;;
8088;SDS011;57635;49.194;12.104;2022-12-10T10:34:12;30.80;;;25.17;;
8088;SDS011;57635;49.194;12.104;2022-12-10T10:36:40;32.53;;;25.63;;
8088;SDS011;57635;49.194;12.104;2022-12-10T10:39:09;29.77;;;24.60;;
8088;SDS011;57635;49.194;12.104;2022-12-10T10:41:38;31.47;;;25.20;;
8088;SDS011;57635;49.194;12.104;2022-12-10T10:44:14;29.03;;;24.37;;
8088;SDS011;57635;49.194;12.104;2022-12-10T10:46:44;31.17;;;24.83;;
8088;SDS011;57635;49.194;12.104;2022-12-10T10:49:15;33.93;;;25.27;;
8088;SDS011;57635;49.194;12.104;2022-12-10T10:51:49;29.23;;;22.13;;
8088;SDS011;57635;49.194;12.104;2022-12-10T10:54:30;29.87;;;25.03;;
8088;SDS011;57635;49.194;12.104;2022-12-10T10:57:01;31.50;;;24.30;;
8088;SDS011;57635;49.194;12.104;2022-12-10T10:59:32;30.73;;;23.77;;
8088;SDS011;57635;49.194;12.104;2022-12-10T11:02:02;30.87;;;25.87;;
8088;SDS011;57635;49.194;12.104;2022-12-10T11:04:36;33.57;;;23.97;;
8088;SDS011;57635;49.194;12.104;2022-12-10T11:07:05;29.37;;;23.63;;
8088;SDS011;57635;49.194;12.104;2022-12-10T11:09:43;27.70;;;24.63;;
8088;SDS011;57635;49.194;12.104;2022-12-10T11:12:20;30.77;;;24.37;;
8088;SDS011;57635;49.194;12.104;2022-12-10T11:14:57;29.87;;;23.87;;
8088;SDS011;57635;49.194;12.104;2022-12-10T11:17:25;28.00;;;23.47;;
8088;SDS011;57635;49.194;12.104;2022-12-10T11:19:55;28.03;;;23.53;;
8088;SDS011;57635;49.194;12.104;2022-12-10T11:22:25;30.03;;;24.80;;
8088;SDS011;57635;49.194;12.104;2022-12-10T11:24:54;31.30;;;26.50;;
8088;SDS011;57635;49.194;12.104;2022-12-10T11:27:32;30.87;;;25.93;;
8088;SDS011;57635;49.194;12.104;2022-12-10T11:30:08;27.30;;;23.20;;
8088;SDS011;57635;49.194;12.104;2022-12-10T11:32:41;28.67;;;23.30;;
8088;SDS011;57635;49.194;12.104;2022-12-10T11:35:18;26.77;;;23.10;;
8088;SDS011;57635;49.194;12.104;2022-12-10T11:37:49;28.30;;;23.30;;
8088;SDS011;57635;49.194;12.104;2022-12-10T11:40:26;27.47;;;22.77;;
8088;SDS011;57635;49.194;12.104;2022-12-10T11:43:01;24.87;;;22.27;;
8088;SDS011;57635;49.194;12.104;2022-12-10T11:45:40;29.13;;;23.40;;
8088;SDS011;57635;49.194;12.104;2022-12-10T11:48:16;28.27;;;21.80;;
8088;SDS011;57635;49.194;12.104;2022-12-10T11:50:56;32.33;;;24.70;;
8088;SDS011;57635;49.194;12.104;2022-12-10T11:53:32;26.60;;;21.33;;
8088;SDS011;57635;49.194;12.104;2022-12-10T11:56:07;27.00;;;21.50;;
8088;SDS011;57635;49.194;12.104;2022-12-10T11:58:41;26.40;;;22.73;;
8088;SDS011;57635;49.194;12.104;2022-12-10T12:01:19;30.33;;;23.90;;
8088;SDS011;57635;49.194;12.104;2022-12-10T12:04:00;26.53;;;22.70;;
8088;SDS011;57635;49.194;12.104;2022-12-10T12:06:47;33.53;;;24.57;;
8088;SDS011;57635;49.194;12.104;2022-12-10T12:09:23;32.37;;;24.50;;
8088;SDS011;57635;49.194;12.104;2022-12-10T12:12:06;27.63;;;22.23;;
8088;SDS011;57635;49.194;12.104;2022-12-10T12:14:40;28.03;;;23.80;;
8088;SDS011;57635;49.194;12.104;2022-12-10T12:17:14;27.20;;;23.20;;
8088;SDS011;57635;49.194;12.104;2022-12-10T12:19:46;29.13;;;24.00;;
8088;SDS011;57635;49.194;12.104;2022-12-10T12:22:16;28.70;;;24.77;;
8088;SDS011;57635;49.194;12.104;2022-12-10T12:24:50;29.33;;;23.90;;
8088;SDS011;57635;49.194;12.104;2022-12-10T12:27:22;27.00;;;22.57;;
8088;SDS011;57635;49.194;12.104;2022-12-10T12:30:04;30.40;;;22.90;;
8088;SDS011;57635;49.194;12.104;2022-12-10T12:32:40;27.73;;;23.07;;
8088;SDS011;57635;49.194;12.104;2022-12-10T12:35:14;26.10;;;23.10;;
8088;SDS011;57635;49.194;12.104;2022-12-10T12:37:45;28.03;;;23.67;;
8088;SDS011;57635;49.194;12.104;2022-12-10T12:40:16;29.10;;;24.70;;
8088;SDS011;57635;49.194;12.104;2022-12-10T12:42:52;26.17;;;22.53;;
8088;SDS011;57635;49.194;12.104;2022-12-10T12:45:25;31.03;;;24.27;;
8088;SDS011;57635;49.194;12.104;2022-12-10T12:48:01;26.23;;;22.27;;
8088;SDS011;57635;49.194;12.104;2022-12-10T12:50:34;25.73;;;22.00;;
8088;SDS011;57635;49.194;12.104;2022-12-10T12:53:05;25.67;;;22.83;;
8088;SDS011;57635;49.194;12.104;2022-12-10T12:55:38;24.17;;;21.00;;
8088;SDS011;57635;49.194;12.104;2022-12-10T12:58:13;23.17;;;20.13;;
8088;SDS011;57635;49.194;12.104;2022-12-10T13:00:48;25.60;;;20.93;;
8088;SDS011;57635;49.194;12.104;2022-12-10T13:03:24;25.77;;;22.33;;
8088;SDS011;57635;49.194;12.104;2022-12-10T13:06:13;25.33;;;20.70;;
8088;SDS011;57635;49.194;12.104;2022-12-10T13:08:46;24.07;;;19.97;;
8088;SDS011;57635;49.194;12.104;2022-12-10T13:11:16;23.73;;;20.70;;
8088;SDS011;57635;49.194;12.104;2022-12-10T13:17:23;25.67;;;20.87;;
8088;SDS011;57635;49.194;12.104;2022-12-10T13:20:24;25.67;;;21.63;;
8088;SDS011;57635;49.194;12.104;2022-12-10T13:22:57;27.13;;;21.10;;
8088;SDS011;57635;49.194;12.104;2022-12-10T13:28:28;23.23;;;19.27;;
8088;SDS011;57635;49.194;12.104;2022-12-10T13:31:18;26.63;;;21.10;;
8088;SDS011;57635;49.194;12.104;2022-12-10T13:33:51;26.93;;;21.53;;
8088;SDS011;57635;49.194;12.104;2022-12-10T13:36:23;23.53;;;19.80;;
8088;SDS011;57635;49.194;12.104;2022-12-10T13:38:57;27.73;;;21.47;;
8088;SDS011;57635;49.194;12.104;2022-12-10T13:41:39;25.57;;;19.77;;
8088;SDS011;57635;49.194;12.104;2022-12-10T13:44:34;26.73;;;21.37;;
8088;SDS011;57635;49.194;12.104;2022-12-10T13:47:04;26.33;;;21.17;;
8088;SDS011;57635;49.194;12.104;2022-12-10T13:49:35;23.57;;;20.43;;
8088;SDS011;57635;49.194;12.104;2022-12-10T13:52:14;27.33;;;22.83;;
8088;SDS011;57635;49.194;12.104;2022-12-10T13:54:48;28.20;;;22.83;;
8088;SDS011;57635;49.194;12.104;2022-12-10T13:57:49;25.07;;;20.03;;
8088;SDS011;57635;49.194;12.104;2022-12-10T14:00:35;24.63;;;20.27;;
8088;SDS011;57635;49.194;12.104;2022-12-10T14:03:09;23.30;;;18.20;;
8088;SDS011;57635;49.194;12.104;2022-12-10T14:05:51;21.10;;;18.80;;
8088;SDS011;57635;49.194;12.104;2022-12-10T14:08:38;23.73;;;19.27;;
8088;SDS011;57635;49.194;12.104;2022-12-10T14:11:10;24.30;;;18.90;;
8088;SDS011;57635;49.194;12.104;2022-12-10T14:13:42;22.67;;;18.00;;
8088;SDS011;57635;49.194;12.104;2022-12-10T14:16:12;24.37;;;18.70;;
8088;SDS011;57635;49.194;12.104;2022-12-10T14:18:41;26.73;;;20.77;;
8088;SDS011;57635;49.194;12.104;2022-12-10T14:21:10;23.47;;;19.73;;
8088;SDS011;57635;49.194;12.104;2022-12-10T14:23:45;31.47;;;22.53;;
8088;SDS011;57635;49.194;12.104;2022-12-10T14:26:25;34.60;;;26.87;;
8088;SDS011;57635;49.194;12.104;2022-12-10T14:28:55;29.63;;;23.10;;
8088;SDS011;57635;49.194;12.104;2022-12-10T14:31:25;26.87;;;22.37;;
8088;SDS011;57635;49.194;12.104;2022-12-10T14:33:55;27.57;;;22.40;;
8088;SDS011;57635;49.194;12.104;2022-12-10T14:36:26;22.73;;;19.17;;
8088;SDS011;57635;49.194;12.104;2022-12-10T14:38:57;27.80;;;23.33;;
8088;SDS011;57635;49.194;12.104;2022-12-10T14:41:26;24.50;;;20.90;;
8088;SDS011;57635;49.194;12.104;2022-12-10T14:43:57;24.20;;;19.43;;
8088;SDS011;57635;49.194;12.104;2022-12-10T14:46:30;25.00;;;20.77;;
8088;SDS011;57635;49.194;12.104;2022-12-10T14:48:58;25.37;;;22.03;;
8088;SDS011;57635;49.194;12.104;2022-12-10T14:51:30;28.87;;;22.20;;
8088;SDS011;57635;49.194;12.104;2022-12-10T14:54:01;28.53;;;22.23;;